Doylestown, Pennsylvania
Current Conditions -  °F | °C
As of 2:54 AM on Friday 28 Nov 2014 (Local Time) from KDYL Reporting Station
Overcast Overcast  
Wind Chill: -5°   Ceiling: 6500
Heat Index: -2°   Visibility: 10mi
Dew Point: -3°   Wind: 5mph
Humidity: 92%   Direction: 280°W
Pressure: 30.1"   Gusts: NA
Location:  40.31°N, 75.13°W
Report Text: KDYL 280754Z AUTO 28004KT 10SM OVC065 M02/M03 A3010 RMK AO2 SLP200 T10171028 $
Loading
Personal Weather Stations






























Interactive Weather Map New forecast layout! Learn more

10-Day Weather Forecast

Advertisements
Track Severe Weather on mobile